Time;durP1;ratioP1;P1;durP2;ratioP2;P2;SDS_P1;SDS_P2;PMS_P1;PMS_P2;Temp;Humidity;BMP_temperature;BMP_pressure;BME280_temperature;BME280_humidity;BME280_pressure;Samples;Min_cycle;Max_cycle;Signal;HPM_P1;HPM_P2
2023/04/03 00:02:06;;;;;;;1.30;0.77;;;20.60;51.70;;;;;;5005401;28;20664;-54
2023/04/03 00:04:37;;;;;;;1.08;0.80;;;20.60;51.20;;;;;;4995952;28;20197;-50
2023/04/03 00:07:10;;;;;;;1.50;0.95;;;20.60;51.10;;;;;;5012666;28;20212;-53
2023/04/03 00:09:40;;;;;;;2.38;0.80;;;20.70;51.10;;;;;;5011544;28;20231;-51
2023/04/03 00:12:11;;;;;;;0.88;0.80;;;20.60;51.00;;;;;;4999261;28;20198;-53
2023/04/03 00:14:42;;;;;;;2.05;1.00;;;20.70;51.10;;;;;;4995448;28;20655;-54
2023/04/03 00:17:12;;;;;;;2.25;0.85;;;20.70;51.10;;;;;;5010601;28;20598;-54
2023/04/03 00:19:43;;;;;;;1.95;0.82;;;20.70;51.10;;;;;;4993310;28;20225;-54
2023/04/03 00:22:15;;;;;;;2.05;0.95;;;20.80;51.10;;;;;;4994082;28;20204;-51
2023/04/03 00:24:46;;;;;;;2.45;1.10;;;20.80;51.10;;;;;;4994544;28;20595;-54
2023/04/03 00:27:17;;;;;;;1.40;0.63;;;20.80;51.00;;;;;;4998298;28;20586;-53
2023/04/03 00:29:48;;;;;;;2.35;1.00;;;20.80;51.00;;;;;;5013773;28;20244;-53
2023/04/03 00:32:19;;;;;;;2.33;0.85;;;20.80;51.00;;;;;;5013007;28;20197;-51
2023/04/03 00:34:49;;;;;;;1.88;1.00;;;20.80;50.90;;;;;;5013195;28;20204;-50
2023/04/03 00:37:22;;;;;;;1.70;0.98;;;20.80;51.00;;;;;;4995552;28;20201;-51
2023/04/03 00:39:53;;;;;;;3.47;1.00;;;20.80;50.90;;;;;;4994372;28;20237;-55
2023/04/03 00:42:23;;;;;;;2.85;1.13;;;20.90;50.90;;;;;;4995247;28;20205;-56
2023/04/03 00:45:29;;;;;;;1.67;0.90;;;20.90;50.90;;;;;;4993084;28;20576;-52
2023/04/03 00:48:02;;;;;;;1.50;1.23;;;20.90;50.90;;;;;;5012433;28;20213;-47
2023/04/03 00:50:33;;;;;;;2.67;1.08;;;20.90;50.70;;;;;;5012842;28;20221;-48
2023/04/03 00:53:08;;;;;;;1.30;0.80;;;20.90;50.60;;;;;;5010467;28;20227;-51
2023/04/03 00:55:40;;;;;;;1.40;1.00;;;20.90;50.70;;;;;;4995771;28;20200;-55
2023/04/03 00:58:12;;;;;;;1.52;0.82;;;21.00;50.60;;;;;;5011829;28;20224;-51
2023/04/03 01:00:45;;;;;;;2.42;1.05;;;20.90;50.50;;;;;;5012214;28;20213;-52
2023/04/03 01:03:16;;;;;;;1.63;0.82;;;20.90;50.50;;;;;;5012515;28;20205;-52
2023/04/03 01:05:47;;;;;;;1.95;0.88;;;21.00;50.50;;;;;;5012511;28;20201;-52
2023/04/03 01:08:19;;;;;;;2.33;1.00;;;21.00;50.50;;;;;;4993494;28;20213;-47
2023/04/03 01:10:50;;;;;;;0.98;0.65;;;21.00;51.10;;;;;;4997849;28;20213;-49
2023/04/03 01:13:29;;;;;;;1.83;1.00;;;21.10;50.50;;;;;;4995658;28;20196;-50
2023/04/03 01:16:02;;;;;;;1.80;0.82;;;21.00;50.50;;;;;;4997713;28;20192;-49
2023/04/03 01:18:34;;;;;;;1.77;0.90;;;21.10;50.50;;;;;;5013153;28;20216;-49
2023/04/03 01:21:58;;;;;;;1.63;1.00;;;21.10;50.50;;;;;;5010365;28;20185;-49
2023/04/03 01:24:41;;;;;;;1.63;1.20;;;21.10;50.50;;;;;;4989278;28;20205;-52
2023/04/03 01:27:13;;;;;;;2.75;1.13;;;21.10;50.50;;;;;;5012758;28;20219;-51
2023/04/03 01:29:45;;;;;;;1.42;0.80;;;21.20;50.50;;;;;;5012161;28;20217;-50
2023/04/03 01:32:18;;;;;;;2.47;1.25;;;21.20;50.60;;;;;;5009372;28;20197;-52
2023/04/03 01:34:48;;;;;;;2.88;1.15;;;21.20;50.60;;;;;;5012403;28;20204;-50
2023/04/03 01:37:19;;;;;;;1.60;0.95;;;21.20;50.70;;;;;;5011259;28;20212;-49
2023/04/03 01:39:50;;;;;;;1.85;1.05;;;21.20;50.60;;;;;;5012247;28;20685;-52
2023/04/03 01:42:20;;;;;;;1.15;0.80;;;21.20;50.60;;;;;;5003556;28;20676;-47
2023/04/03 01:44:51;;;;;;;2.17;1.10;;;21.30;50.60;;;;;;5012052;28;20583;-50
2023/04/03 01:47:24;;;;;;;1.83;0.80;;;21.30;50.60;;;;;;5012343;28;20193;-50
2023/04/03 01:49:54;;;;;;;3.05;1.33;;;21.30;50.70;;;;;;5011880;28;20228;-51
2023/04/03 01:52:25;;;;;;;2.35;1.00;;;21.30;50.70;;;;;;5011680;28;20208;-49
2023/04/03 01:54:56;;;;;;;1.17;0.82;;;21.30;50.70;;;;;;4996280;28;20210;-48
2023/04/03 01:57:26;;;;;;;2.38;1.17;;;21.30;50.70;;;;;;4991755;28;20567;-47
2023/04/03 01:59:57;;;;;;;1.08;0.80;;;21.40;50.70;;;;;;4992186;28;20237;-48
2023/04/03 02:02:30;;;;;;;2.22;0.93;;;21.40;50.70;;;;;;5003127;28;20210;-51
2023/04/03 02:05:00;;;;;;;2.10;1.02;;;21.40;50.70;;;;;;5011596;28;20196;-48
2023/04/03 02:07:31;;;;;;;1.17;0.70;;;21.50;50.80;;;;;;5012075;28;20200;-49
2023/04/03 02:10:01;;;;;;;1.88;0.85;;;21.50;50.70;;;;;;4999071;28;20220;-52
2023/04/03 02:12:32;;;;;;;0.95;0.70;;;21.50;50.80;;;;;;4993859;28;20197;-50
2023/04/03 02:15:03;;;;;;;1.67;0.80;;;21.50;50.70;;;;;;4992367;28;20662;-49
2023/04/03 02:17:35;;;;;;;1.40;0.82;;;21.50;50.70;;;;;;4994443;28;20580;-50
2023/04/03 02:20:06;;;;;;;1.75;0.80;;;21.50;50.70;;;;;;5011622;28;20246;-51
2023/04/03 02:22:37;;;;;;;1.92;0.80;;;21.50;50.70;;;;;;4996142;28;20189;-53
2023/04/03 02:25:08;;;;;;;1.73;0.75;;;21.50;50.70;;;;;;4992405;28;20193;-50
2023/04/03 02:27:40;;;;;;;1.80;0.80;;;21.50;50.70;;;;;;4992418;28;20206;-50
2023/04/03 02:30:11;;;;;;;1.60;0.73;;;21.60;51.30;;;;;;4992332;28;20549;-50
2023/04/03 02:32:44;;;;;;;2.20;0.95;;;21.60;50.70;;;;;;4992247;28;20776;-51
2023/04/03 02:35:15;;;;;;;1.75;0.80;;;21.60;50.60;;;;;;4997343;28;20224;-51
2023/04/03 02:37:45;;;;;;;1.17;1.05;;;21.60;50.60;;;;;;4993294;28;20198;-52
2023/04/03 02:40:16;;;;;;;0.82;0.70;;;21.60;50.60;;;;;;4995031;28;20236;-53
2023/04/03 02:42:47;;;;;;;1.45;0.75;;;21.60;50.60;;;;;;5009836;28;20211;-54
2023/04/03 02:45:17;;;;;;;2.40;0.70;;;21.70;50.70;;;;;;5010935;28;20612;-53
2023/04/03 02:47:50;;;;;;;1.92;0.70;;;21.70;50.70;;;;;;5011425;28;20200;-53
2023/04/03 02:50:21;;;;;;;1.60;0.70;;;21.70;50.60;;;;;;5011325;28;20780;-50
2023/04/03 02:52:51;;;;;;;0.80;0.60;;;21.70;50.70;;;;;;4999735;28;20205;-53
2023/04/03 02:55:22;;;;;;;1.60;0.90;;;21.70;50.60;;;;;;4992854;28;20200;-51
2023/04/03 02:57:53;;;;;;;1.80;1.02;;;21.70;50.60;;;;;;4996178;28;20205;-52
2023/04/03 03:00:24;;;;;;;1.38;0.77;;;21.70;50.60;;;;;;4991447;28;20233;-52
2023/04/03 03:02:56;;;;;;;1.27;0.80;;;21.70;50.50;;;;;;4999045;28;20204;-50
2023/04/03 03:05:27;;;;;;;2.00;0.90;;;21.70;50.50;;;;;;5011342;28;20205;-51
2023/04/03 03:07:58;;;;;;;2.60;0.82;;;21.70;50.50;;;;;;5010928;28;20193;-55
2023/04/03 03:10:29;;;;;;;1.13;0.80;;;21.80;50.50;;;;;;5010944;28;20221;-52
2023/04/03 03:12:59;;;;;;;2.22;1.00;;;21.80;50.50;;;;;;5006236;28;20189;-52
2023/04/03 03:15:30;;;;;;;1.02;0.75;;;21.80;50.50;;;;;;5010938;28;20205;-53
2023/04/03 03:18:02;;;;;;;1.42;0.93;;;21.80;50.50;;;;;;4997772;28;20189;-52
2023/04/03 03:20:33;;;;;;;1.60;0.80;;;21.90;50.60;;;;;;5001676;28;20225;-52
2023/04/03 03:23:04;;;;;;;2.17;0.80;;;21.90;50.50;;;;;;5000015;28;20197;-50
2023/04/03 03:25:34;;;;;;;2.72;0.85;;;21.90;50.50;;;;;;4995795;28;20201;-49
2023/04/03 03:28:05;;;;;;;2.17;0.90;;;21.90;50.50;;;;;;4995610;28;20201;-51
2023/04/03 03:30:36;;;;;;;1.30;0.73;;;21.90;50.40;;;;;;4996011;28;20232;-51
2023/04/03 03:33:08;;;;;;;1.70;1.05;;;21.90;50.40;;;;;;4999755;28;20190;-50
2023/04/03 03:35:40;;;;;;;1.88;0.75;;;21.90;50.40;;;;;;5004392;28;20304;-54
2023/04/03 03:38:10;;;;;;;1.33;0.77;;;22.00;50.40;;;;;;5003794;28;20212;-53
2023/04/03 03:40:41;;;;;;;1.77;1.10;;;22.00;50.40;;;;;;5014428;28;20229;-50
2023/04/03 03:43:11;;;;;;;2.10;0.95;;;22.00;50.40;;;;;;4997358;28;20212;-51
2023/04/03 03:45:42;;;;;;;1.00;0.70;;;22.00;50.40;;;;;;4994807;28;20223;-53
2023/04/03 03:48:15;;;;;;;1.60;0.80;;;22.00;50.40;;;;;;4994278;28;20198;-51
2023/04/03 03:50:46;;;;;;;1.80;1.00;;;22.00;50.30;;;;;;4994982;28;20225;-51
2023/04/03 03:53:17;;;;;;;3.03;1.10;;;22.00;50.30;;;;;;4995142;28;20202;-53
2023/04/03 03:55:49;;;;;;;1.25;0.95;;;22.00;50.30;;;;;;4994862;28;20198;-50
2023/04/03 03:58:19;;;;;;;1.42;0.80;;;22.10;50.30;;;;;;5014470;28;20211;-52
2023/04/03 04:00:50;;;;;;;1.58;0.77;;;22.10;50.30;;;;;;5014207;28;20229;-47
2023/04/03 04:03:23;;;;;;;1.50;0.80;;;22.10;50.30;;;;;;5014613;28;20197;-51
2023/04/03 04:05:54;;;;;;;1.50;0.70;;;22.10;50.30;;;;;;5014762;28;20211;-51
2023/04/03 04:08:25;;;;;;;1.60;0.75;;;22.10;50.30;;;;;;5014265;28;20208;-48
2023/04/03 04:10:56;;;;;;;1.33;0.80;;;22.10;50.30;;;;;;5009843;28;20223;-49
2023/04/03 04:13:26;;;;;;;1.85;0.70;;;22.10;50.30;;;;;;5013197;28;20197;-52
2023/04/03 04:15:57;;;;;;;2.40;0.80;;;22.10;50.20;;;;;;5010416;28;20200;-53
2023/04/03 04:18:30;;;;;;;0.70;0.60;;;22.10;50.20;;;;;;4994554;28;20198;-52
2023/04/03 04:21:00;;;;;;;1.95;0.90;;;22.10;50.20;;;;;;4994062;28;20209;-49
2023/04/03 04:23:31;;;;;;;1.33;0.90;;;22.10;50.20;;;;;;4994250;28;20665;-49
2023/04/03 04:26:02;;;;;;;0.95;0.77;;;22.10;50.20;;;;;;5011961;28;20589;-49
2023/04/03 04:28:32;;;;;;;1.23;0.70;;;22.10;50.20;;;;;;5013102;28;20201;-51
2023/04/03 04:31:03;;;;;;;1.42;0.80;;;22.10;50.10;;;;;;5002085;28;20193;-53
2023/04/03 04:33:35;;;;;;;1.92;1.05;;;22.20;50.20;;;;;;4993600;28;20193;-49
2023/04/03 04:36:06;;;;;;;0.93;0.70;;;22.10;50.10;;;;;;5010676;28;20617;-51
2023/04/03 04:38:38;;;;;;;1.50;0.70;;;22.20;50.10;;;;;;4998136;28;20205;-53
2023/04/03 04:41:09;;;;;;;2.15;0.90;;;22.20;50.10;;;;;;4999431;28;20212;-50
2023/04/03 04:43:39;;;;;;;2.00;0.80;;;22.20;50.10;;;;;;4993629;28;20905;-52
2023/04/03 04:46:12;;;;;;;1.58;0.68;;;22.20;50.10;;;;;;4993301;28;20201;-51
2023/04/03 04:48:44;;;;;;;1.20;0.70;;;22.20;50.00;;;;;;4993719;28;20194;-53
2023/04/03 04:51:15;;;;;;;1.08;0.70;;;22.20;50.00;;;;;;5006300;28;20192;-51
2023/04/03 04:53:46;;;;;;;1.88;0.80;;;22.20;49.90;;;;;;5013072;28;20204;-52
2023/04/03 04:56:17;;;;;;;1.92;0.80;;;22.20;49.90;;;;;;4996242;28;20193;-53
2023/04/03 04:58:47;;;;;;;1.63;1.00;;;22.20;49.90;;;;;;4993345;28;20201;-51
2023/04/03 05:01:18;;;;;;;1.95;0.85;;;22.20;49.90;;;;;;4998928;28;20199;-52
2023/04/03 05:03:50;;;;;;;1.00;0.80;;;22.20;49.90;;;;;;5008598;28;20207;-53
2023/04/03 05:06:21;;;;;;;1.77;0.70;;;22.20;49.90;;;;;;5010835;28;20551;-53
2023/04/03 05:08:52;;;;;;;0.60;0.40;;;22.20;49.90;;;;;;5013016;28;20204;-51
2023/04/03 05:11:23;;;;;;;1.30;0.60;;;22.20;50.00;;;;;;5010765;28;20201;-50
2023/04/03 05:13:53;;;;;;;1.27;0.80;;;22.20;50.50;;;;;;4994671;28;20209;-50
2023/04/03 05:16:25;;;;;;;1.42;0.70;;;22.20;49.90;;;;;;5009580;28;20216;-51
2023/04/03 05:18:57;;;;;;;2.45;0.88;;;22.20;49.80;;;;;;5013208;28;20221;-53
2023/04/03 05:21:31;;;;;;;1.30;1.00;;;22.20;49.70;;;;;;5012381;28;20197;-51
2023/04/03 05:24:03;;;;;;;1.85;0.70;;;22.20;49.70;;;;;;5012960;28;20200;-55
2023/04/03 05:26:34;;;;;;;1.75;0.73;;;22.20;49.70;;;;;;5012443;28;20197;-54
2023/04/03 05:29:04;;;;;;;3.72;1.20;;;22.20;49.70;;;;;;5010350;28;20220;-59
2023/04/03 05:31:35;;;;;;;5.05;0.98;;;22.20;49.00;;;;;;4993025;28;20202;-58
2023/04/03 05:34:08;;;;;;;2.65;0.82;;;22.10;47.90;;;;;;5006830;28;20197;-58
2023/04/03 05:36:38;;;;;;;3.85;1.20;;;22.00;47.50;;;;;;5013221;28;20197;-49
2023/04/03 05:39:09;;;;;;;3.08;1.00;;;21.90;47.40;;;;;;5013083;28;20230;-51
2023/04/03 05:41:40;;;;;;;4.68;1.00;;;21.70;47.60;;;;;;5012534;28;20204;-51
2023/04/03 05:44:10;;;;;;;3.88;0.98;;;21.60;47.90;;;;;;5012067;28;20208;-51
2023/04/03 05:46:41;;;;;;;1.88;1.00;;;21.60;48.10;;;;;;4998680;28;20197;-55
2023/04/03 05:49:13;;;;;;;1.40;0.90;;;21.50;48.30;;;;;;4995472;28;20209;-53
2023/04/03 05:51:45;;;;;;;1.88;0.80;;;21.50;48.50;;;;;;5012290;28;20193;-49
2023/04/03 05:54:20;;;;;;;0.88;0.70;;;21.50;48.60;;;;;;5012012;28;20192;-51
2023/04/03 05:56:50;;;;;;;4.60;1.38;;;21.50;48.70;;;;;;5011512;28;20200;-52
2023/04/03 05:59:21;;;;;;;2.50;1.10;;;21.50;48.70;;;;;;5012139;28;20228;-50
2023/04/03 06:01:52;;;;;;;3.10;1.10;;;21.50;48.70;;;;;;5011712;28;20204;-52
2023/04/03 06:04:25;;;;;;;1.85;0.93;;;21.50;48.70;;;;;;5008623;28;20196;-55
2023/04/03 06:06:58;;;;;;;3.08;0.85;;;21.50;48.80;;;;;;5011761;28;20201;-54
2023/04/03 06:09:30;;;;;;;3.50;1.00;;;21.50;48.80;;;;;;5011653;28;20220;-52
2023/04/03 06:12:01;;;;;;;1.55;0.90;;;21.60;48.80;;;;;;5011357;28;20220;-52
2023/04/03 06:14:32;;;;;;;4.22;0.90;;;21.50;48.80;;;;;;5011272;28;20201;-53
2023/04/03 06:17:03;;;;;;;1.95;0.80;;;21.60;48.90;;;;;;5010801;28;20197;-53
2023/04/03 06:19:35;;;;;;;1.73;0.60;;;21.50;48.90;;;;;;5011307;28;20228;-51
2023/04/03 06:22:06;;;;;;;1.92;0.80;;;21.60;49.00;;;;;;5011264;28;20196;-54
2023/04/03 06:24:37;;;;;;;2.63;0.90;;;21.50;48.90;;;;;;5012189;28;20200;-53
2023/04/03 06:27:08;;;;;;;1.67;0.75;;;21.50;48.90;;;;;;5011024;28;20189;-48
2023/04/03 06:29:39;;;;;;;2.55;0.93;;;21.60;49.00;;;;;;5011733;28;20310;-48
2023/04/03 06:32:10;;;;;;;1.92;0.90;;;21.50;48.90;;;;;;4992554;28;20200;-49
2023/04/03 06:34:42;;;;;;;2.45;1.00;;;21.60;49.00;;;;;;4995941;28;20201;-53
2023/04/03 06:37:18;;;;;;;1.92;0.98;;;21.50;48.80;;;;;;5011250;28;20201;-52
2023/04/03 06:39:50;;;;;;;3.35;0.90;;;21.50;48.80;;;;;;5011302;28;20296;-53
2023/04/03 06:42:20;;;;;;;2.75;1.08;;;21.50;48.80;;;;;;4991327;28;20194;-51
2023/04/03 06:44:51;;;;;;;3.15;1.25;;;21.50;48.80;;;;;;4991233;28;20209;-51
2023/04/03 06:47:22;;;;;;;2.33;1.27;;;21.50;48.80;;;;;;4991898;28;20209;-51
2023/04/03 06:49:54;;;;;;;3.42;1.08;;;21.50;48.80;;;;;;4991483;28;20220;-52
2023/04/03 06:52:26;;;;;;;1.85;1.00;;;21.50;48.80;;;;;;4991935;28;20197;-54
2023/04/03 06:54:57;;;;;;;1.70;0.90;;;21.50;48.90;;;;;;4991155;28;20201;-51
2023/04/03 06:57:28;;;;;;;2.35;0.90;;;21.50;48.90;;;;;;4991989;28;20281;-49
2023/04/03 06:59:58;;;;;;;1.98;1.00;;;21.50;48.90;;;;;;4991249;28;20269;-53
2023/04/03 07:02:29;;;;;;;1.73;0.90;;;21.50;48.90;;;;;;4991536;28;20201;-53
2023/04/03 07:05:02;;;;;;;1.13;1.00;;;21.40;48.90;;;;;;5001773;28;20686;-53
2023/04/03 07:07:33;;;;;;;1.60;0.90;;;21.40;48.90;;;;;;4999483;28;20192;-56
2023/04/03 07:10:04;;;;;;;1.90;0.90;;;21.50;48.90;;;;;;5011276;28;20303;-55
2023/04/03 07:12:35;;;;;;;1.50;1.10;;;21.40;48.90;;;;;;4991108;28;20208;-54
2023/04/03 07:15:06;;;;;;;1.33;0.93;;;21.40;48.90;;;;;;4990340;28;20197;-54
2023/04/03 07:17:37;;;;;;;2.03;0.95;;;21.40;48.90;;;;;;4991772;28;20662;-53
2023/04/03 07:20:11;;;;;;;1.75;0.90;;;21.40;48.90;;;;;;4991553;28;20665;-52
2023/04/03 07:22:42;;;;;;;2.20;0.98;;;21.40;48.90;;;;;;4990878;28;20208;-55
2023/04/03 07:25:12;;;;;;;2.00;0.95;;;21.40;48.90;;;;;;4991240;28;20289;-53
2023/04/03 07:27:43;;;;;;;2.22;1.20;;;21.30;48.90;;;;;;4991060;28;20650;-53
2023/04/03 07:30:15;;;;;;;2.17;1.02;;;21.30;48.90;;;;;;5005770;28;20224;-54
2023/04/03 07:32:45;;;;;;;3.00;1.33;;;21.30;48.90;;;;;;5011571;28;20665;-55
2023/04/03 07:35:18;;;;;;;1.80;1.10;;;21.30;48.90;;;;;;5011467;28;20291;-50
2023/04/03 07:37:49;;;;;;;2.90;1.02;;;21.20;48.90;;;;;;5010737;28;20189;-56
2023/04/03 07:40:19;;;;;;;1.95;1.17;;;21.30;49.00;;;;;;5011017;28;20236;-53
2023/04/03 07:42:50;;;;;;;2.58;1.10;;;21.20;48.90;;;;;;5011140;28;20687;-52
2023/04/03 07:45:22;;;;;;;1.25;1.00;;;21.20;48.90;;;;;;5011072;28;20204;-52
2023/04/03 07:47:53;;;;;;;1.35;1.13;;;21.20;49.00;;;;;;5011503;28;20201;-50
2023/04/03 07:50:27;;;;;;;2.30;1.00;;;21.20;49.00;;;;;;5011409;28;20220;-49
2023/04/03 07:52:57;;;;;;;3.47;1.08;;;21.20;49.00;;;;;;5010827;28;20201;-53
2023/04/03 07:55:28;;;;;;;2.72;0.90;;;21.20;49.00;;;;;;5010596;28;20205;-54
2023/04/03 07:57:59;;;;;;;1.60;1.15;;;21.10;48.90;;;;;;5011182;28;20197;-53
2023/04/03 08:00:29;;;;;;;2.53;1.02;;;21.10;48.90;;;;;;5010663;28;20241;-56
2023/04/03 08:03:00;;;;;;;1.52;1.00;;;21.10;48.90;;;;;;5010731;28;20215;-56
2023/04/03 08:05:32;;;;;;;2.58;0.93;;;21.10;48.90;;;;;;5010709;28;20197;-51
2023/04/03 08:08:03;;;;;;;1.77;1.00;;;21.10;48.90;;;;;;5012625;28;20676;-53
2023/04/03 08:10:34;;;;;;;2.03;1.00;;;21.10;48.90;;;;;;5014601;28;20583;-54
2023/04/03 08:13:05;;;;;;;1.75;1.00;;;21.00;48.90;;;;;;5014440;28;20193;-54
2023/04/03 08:15:36;;;;;;;1.52;1.13;;;21.00;48.90;;;;;;5014315;28;20594;-51
2023/04/03 08:18:07;;;;;;;1.55;1.20;;;21.00;48.90;;;;;;5014345;28;20284;-54
2023/04/03 08:20:40;;;;;;;2.30;1.20;;;21.00;49.00;;;;;;5014106;28;20236;-50
2023/04/03 08:23:12;;;;;;;1.52;1.00;;;21.00;49.00;;;;;;5014163;28;20248;-53
2023/04/03 08:25:43;;;;;;;1.88;1.10;;;20.90;48.90;;;;;;5014441;28;20199;-51
2023/04/03 08:28:15;;;;;;;1.73;0.98;;;20.90;49.00;;;;;;5011242;28;20192;-52
2023/04/03 08:30:46;;;;;;;2.55;1.10;;;20.90;49.00;;;;;;5014121;28;20224;-56
2023/04/03 08:33:16;;;;;;;1.38;1.20;;;20.90;49.00;;;;;;5013815;28;20196;-55
2023/04/03 08:35:49;;;;;;;2.55;0.90;;;20.90;49.00;;;;;;5013596;28;20201;-56
2023/04/03 08:38:20;;;;;;;1.92;1.30;;;20.80;49.00;;;;;;5014382;28;20243;-53
2023/04/03 08:41:01;;;;;;;2.80;1.02;;;20.80;49.00;;;;;;5014248;28;20286;-56
2023/04/03 08:43:39;;;;;;;2.45;1.00;;;20.80;48.90;;;;;;5013996;28;20209;-55
2023/04/03 08:46:12;;;;;;;3.35;1.35;;;20.80;49.00;;;;;;5013717;28;20200;-51
2023/04/03 08:48:45;;;;;;;3.13;1.67;;;20.80;49.00;;;;;;5013343;28;20653;-52
2023/04/03 08:51:19;;;;;;;3.38;1.20;;;20.70;49.00;;;;;;5013584;28;20200;-53
2023/04/03 08:53:58;;;;;;;2.10;1.20;;;20.70;49.00;;;;;;5013800;28;20665;-57
2023/04/03 08:56:29;;;;;;;2.53;1.20;;;20.70;49.10;;;;;;5014043;28;20197;-51
2023/04/03 08:59:02;;;;;;;1.85;1.13;;;20.70;49.10;;;;;;5013293;28;20221;-53
2023/04/03 09:01:39;;;;;;;2.05;1.10;;;20.70;49.10;;;;;;5012948;28;20224;-54
2023/04/03 09:04:16;;;;;;;3.17;1.10;;;20.70;49.20;;;;;;5013341;28;20236;-56
2023/04/03 09:06:52;;;;;;;1.27;0.90;;;20.70;49.10;;;;;;5013181;28;20201;-54
2023/04/03 09:09:34;;;;;;;2.60;1.25;;;20.60;49.10;;;;;;5013388;28;20216;-56
2023/04/03 09:12:15;;;;;;;3.97;1.33;;;20.60;49.10;;;;;;5013296;28;20243;-52
2023/04/03 09:14:52;;;;;;;1.73;1.00;;;20.60;49.10;;;;;;5009625;28;20200;-55
2023/04/03 09:17:33;;;;;;;2.45;1.17;;;20.60;49.10;;;;;;5000841;28;20197;-51
2023/04/03 09:20:11;;;;;;;1.50;1.20;;;20.60;49.10;;;;;;4992963;28;20221;-54
2023/04/03 09:22:45;;;;;;;1.48;1.25;;;20.60;49.10;;;;;;4993692;28;20573;-56
2023/04/03 09:25:19;;;;;;;2.55;1.20;;;20.50;49.10;;;;;;4994479;28;20203;-49
2023/04/03 09:27:51;;;;;;;2.80;1.20;;;20.50;49.10;;;;;;4993594;28;20571;-52
2023/04/03 09:30:23;;;;;;;2.83;1.02;;;20.50;49.10;;;;;;4993419;28;20221;-50
2023/04/03 09:32:55;;;;;;;1.38;1.10;;;20.50;49.20;;;;;;4993427;28;20198;-48
2023/04/03 09:35:28;;;;;;;2.05;1.23;;;20.50;49.20;;;;;;5001350;28;20208;-54
2023/04/03 09:38:03;;;;;;;2.65;1.40;;;20.40;49.10;;;;;;5012545;28;20201;-57
2023/04/03 09:40:39;;;;;;;2.65;1.25;;;20.40;49.20;;;;;;5011907;28;20216;-48
2023/04/03 09:43:31;;;;;;;2.72;1.50;;;20.40;49.20;;;;;;5012537;28;20244;-58
2023/04/03 09:46:20;;;;;;;3.53;1.45;;;20.40;48.60;;;;;;5012505;28;20197;-57
2023/04/03 09:49:00;;;;;;;4.45;1.70;;;20.30;48.40;;;;;;5013052;28;20564;-57
2023/04/03 09:51:32;;;;;;;5.20;1.50;;;20.30;48.50;;;;;;5013003;28;20203;-54
2023/04/03 09:54:41;;;;;;;4.13;1.50;;;20.20;48.50;;;;;;5012147;28;20204;-49
2023/04/03 09:57:14;;;;;;;2.88;1.40;;;20.20;48.70;;;;;;5012452;28;20247;-51
2023/04/03 09:59:49;;;;;;;2.78;1.48;;;20.20;48.90;;;;;;5012536;28;20267;-55
2023/04/03 10:02:35;;;;;;;3.00;1.48;;;20.20;49.00;;;;;;5012116;28;20243;-57
2023/04/03 10:05:07;;;;;;;1.92;0.90;;;20.20;49.10;;;;;;5011987;28;20197;-56
2023/04/03 10:07:39;;;;;;;2.35;1.30;;;20.20;49.20;;;;;;5012157;28;20217;-58
2023/04/03 10:10:25;;;;;;;3.47;1.52;;;20.10;49.20;;;;;;5011938;28;20228;-54
2023/04/03 10:13:09;;;;;;;2.88;1.27;;;20.10;49.20;;;;;;5012222;28;20197;-55
2023/04/03 10:15:44;;;;;;;2.33;1.20;;;20.10;49.30;;;;;;5011797;28;20200;-54
2023/04/03 10:18:35;;;;;;;3.28;1.38;;;20.10;49.30;;;;;;5009012;28;20184;-53
2023/04/03 10:21:11;;;;;;;4.95;1.50;;;20.10;49.40;;;;;;5011692;28;20375;-50
2023/04/03 10:23:46;;;;;;;2.92;1.50;;;20.00;49.30;;;;;;4999232;28;20275;-50
2023/04/03 10:26:28;;;;;;;2.95;1.20;;;20.00;49.40;;;;;;4995883;28;20195;-53
2023/04/03 10:29:05;;;;;;;1.60;1.40;;;20.00;49.40;;;;;;5010416;28;20220;-55
2023/04/03 10:31:44;;;;;;;2.38;1.35;;;20.00;49.40;;;;;;5010719;28;20692;-49
2023/04/03 10:34:23;;;;;;;4.35;1.30;;;20.00;49.40;;;;;;5010091;28;20200;-49
2023/04/03 10:37:02;;;;;;;3.13;1.40;;;20.00;49.40;;;;;;5009720;28;20200;-51
2023/04/03 10:39:39;;;;;;;4.15;1.90;;;20.00;49.50;;;;;;5011118;28;20224;-52
2023/04/03 10:42:17;;;;;;;2.30;1.60;;;19.90;49.40;;;;;;5010230;28;20216;-53
2023/04/03 10:45:10;;;;;;;2.42;1.20;;;19.90;49.40;;;;;;5011148;28;20200;-58
2023/04/03 10:47:49;;;;;;;2.75;1.40;;;19.90;49.40;;;;;;5011303;28;20657;-53
2023/04/03 10:50:45;;;;;;;2.30;1.25;;;19.90;49.40;;;;;;5010926;28;20213;-54
2023/04/03 10:53:28;;;;;;;2.78;1.30;;;19.90;49.50;;;;;;5010532;28;20232;-56
2023/04/03 10:56:07;;;;;;;2.67;1.40;;;19.90;49.50;;;;;;5010711;28;20189;-53
2023/04/03 10:58:45;;;;;;;2.63;1.33;;;19.80;49.50;;;;;;4992197;28;20562;-55
2023/04/03 11:01:20;;;;;;;3.53;1.30;;;19.80;49.50;;;;;;4991260;28;20213;-55
2023/04/03 11:03:55;;;;;;;2.55;1.42;;;19.80;49.50;;;;;;4991866;28;21342;-50
2023/04/03 11:06:28;;;;;;;1.25;0.98;;;19.80;49.50;;;;;;4994379;28;20188;-57
2023/04/03 11:09:03;;;;;;;1.75;1.13;;;19.80;49.50;;;;;;4991644;28;20221;-52
2023/04/03 11:11:37;;;;;;;2.00;1.00;;;19.80;49.50;;;;;;4993198;28;20197;-53
2023/04/03 11:14:17;;;;;;;2.78;1.33;;;19.80;49.50;;;;;;4991284;28;20201;-53
2023/04/03 11:16:53;;;;;;;3.05;1.20;;;19.70;49.50;;;;;;4991328;28;20682;-50
2023/04/03 11:19:37;;;;;;;1.73;1.08;;;19.70;49.50;;;;;;4991069;28;20225;-55
2023/04/03 11:22:15;;;;;;;2.80;1.45;;;19.70;49.50;;;;;;4990356;28;20220;-54
2023/04/03 11:24:54;;;;;;;2.95;1.10;;;19.70;49.50;;;;;;4990760;28;20202;-56
2023/04/03 11:27:29;;;;;;;2.47;1.38;;;19.70;49.50;;;;;;4990871;28;21025;-56
2023/04/03 11:30:02;;;;;;;2.65;1.20;;;19.60;49.50;;;;;;4990939;28;20221;-55
2023/04/03 11:33:00;;;;;;;2.42;1.27;;;19.60;49.50;;;;;;4995281;28;20192;-53
2023/04/03 11:35:32;;;;;;;2.75;1.10;;;19.60;49.50;;;;;;4995920;28;20205;-58
2023/04/03 11:38:05;;;;;;;1.40;1.25;;;19.60;49.50;;;;;;5011037;28;20204;-53
2023/04/03 11:40:39;;;;;;;2.33;1.33;;;19.60;49.50;;;;;;5010703;28;20213;-57
2023/04/03 11:43:22;;;;;;;2.53;1.38;;;19.60;49.60;;;;;;5013719;28;20221;-56
2023/04/03 11:46:01;;;;;;;1.45;1.10;;;19.60;49.60;;;;;;5014499;28;20197;-53
2023/04/03 11:48:53;;;;;;;2.55;1.00;;;19.60;49.60;;;;;;5013744;28;20636;-52
2023/04/03 11:51:42;;;;;;;1.30;1.10;;;19.50;49.60;;;;;;5013762;28;20197;-54
2023/04/03 11:54:45;;;;;;;2.40;1.10;;;19.50;49.60;;;;;;5014369;28;20201;-55
2023/04/03 11:58:03;;;;;;;1.67;1.25;;;19.50;49.60;;;;;;5001346;28;20220;-55
2023/04/03 12:00:54;;;;;;;1.60;1.10;;;19.50;49.60;;;;;;4971836;28;20218;-55
2023/04/03 12:04:08;;;;;;;1.92;1.25;;;19.50;49.60;;;;;;5011558;28;20227;-53
2023/04/03 12:07:14;;;;;;;2.72;1.17;;;19.40;49.60;;;;;;5013986;28;20248;-53
2023/04/03 12:10:19;;;;;;;2.38;1.30;;;19.40;49.50;;;;;;5014112;28;20216;-54
2023/04/03 12:13:18;;;;;;;1.33;1.00;;;19.40;49.60;;;;;;5014105;28;20192;-55
2023/04/03 12:15:59;;;;;;;2.30;1.30;;;19.40;49.60;;;;;;5014255;28;20193;-53
2023/04/03 12:19:00;;;;;;;2.35;1.40;;;19.40;49.60;;;;;;5014573;28;20197;-51
2023/04/03 12:22:03;;;;;;;1.70;1.08;;;19.40;49.70;;;;;;5014514;28;20260;-58
2023/04/03 12:24:36;;;;;;;2.30;1.13;;;19.30;49.70;;;;;;4994301;28;20202;-57
2023/04/03 12:27:25;;;;;;;2.35;1.20;;;19.40;49.70;;;;;;4995240;28;20201;-55
2023/04/03 12:30:03;;;;;;;1.10;0.93;;;19.30;49.70;;;;;;4994835;28;20217;-58
2023/04/03 12:32:58;;;;;;;2.83;1.48;;;19.30;49.70;;;;;;5008205;28;20197;-52
2023/04/03 12:35:33;;;;;;;2.28;1.20;;;19.30;49.70;;;;;;5013857;28;20201;-53
2023/04/03 12:38:39;;;;;;;2.78;1.10;;;19.30;49.70;;;;;;5014364;28;20225;-55
2023/04/03 12:41:27;;;;;;;2.67;1.08;;;19.20;49.70;;;;;;5014230;28;20243;-54
2023/04/03 12:44:09;;;;;;;2.20;1.30;;;19.20;49.70;;;;;;5012870;28;20291;-54
2023/04/03 12:46:41;;;;;;;1.60;1.02;;;19.20;49.60;;;;;;5013625;28;20193;-53
2023/04/03 12:49:33;;;;;;;1.13;0.98;;;19.20;49.70;;;;;;5014014;28;20221;-53
2023/04/03 12:52:05;;;;;;;2.05;1.00;;;19.20;49.70;;;;;;5013961;28;20224;-54
2023/04/03 12:54:39;;;;;;;1.25;1.00;;;19.20;49.70;;;;;;5013580;28;20204;-58
2023/04/03 12:57:19;;;;;;;1.40;1.10;;;19.20;49.70;;;;;;5014230;28;20204;-53
2023/04/03 12:59:50;;;;;;;1.08;0.98;;;19.20;49.70;;;;;;5014006;28;20267;-54
2023/04/03 13:02:29;;;;;;;1.95;1.00;;;19.20;49.80;;;;;;5013409;28;20224;-51
2023/04/03 13:05:01;;;;;;;2.65;1.00;;;19.10;49.70;;;;;;5013812;28;20200;-55
2023/04/03 13:07:34;;;;;;;2.08;1.38;;;19.20;49.70;;;;;;5013969;28;20197;-54
2023/04/03 13:10:17;;;;;;;2.05;1.10;;;19.10;49.70;;;;;;4999028;28;20558;-57
2023/04/03 13:12:57;;;;;;;1.88;1.05;;;19.10;49.80;;;;;;4994152;28;20200;-55
2023/04/03 13:15:30;;;;;;;2.72;1.05;;;19.10;49.70;;;;;;4993810;28;20197;-51
2023/04/03 13:18:01;;;;;;;1.98;1.05;;;19.10;49.80;;;;;;4993369;28;20568;-51
2023/04/03 13:20:34;;;;;;;1.88;0.90;;;19.00;49.70;;;;;;4995491;28;20283;-56
2023/04/03 13:23:08;;;;;;;1.15;1.00;;;19.00;49.70;;;;;;4993407;28;20241;-53
2023/04/03 13:25:43;;;;;;;2.13;1.10;;;19.00;49.80;;;;;;5013491;28;20677;-57
2023/04/03 13:28:18;;;;;;;2.08;1.10;;;19.00;50.30;;;;;;5013363;28;20266;-54